createdAt,value
2018-11-03T00:00:18.014Z,13.53
2018-11-03T00:02:47.036Z,13.07
2018-11-03T00:05:15.819Z,14.30
2018-11-03T00:07:44.454Z,13.80
2018-11-03T00:10:12.695Z,15.90
2018-11-03T00:12:40.889Z,14.50
2018-11-03T00:15:09.475Z,16.40
2018-11-03T00:17:37.715Z,14.20
2018-11-03T00:20:06.615Z,13.40
2018-11-03T00:22:34.819Z,16.47
2018-11-03T00:25:03.045Z,16.57
2018-11-03T00:27:31.289Z,15.53
2018-11-03T00:29:59.478Z,16.40
2018-11-03T00:32:27.665Z,16.37
2018-11-03T00:34:55.918Z,17.90
2018-11-03T00:37:24.083Z,17.30
2018-11-03T00:39:52.360Z,18.17
2018-11-03T00:42:20.521Z,17.40
2018-11-03T00:44:48.753Z,17.80
2018-11-03T00:47:16.973Z,17.40
2018-11-03T00:49:45.161Z,17.93
2018-11-03T00:52:13.388Z,16.77
2018-11-03T00:54:41.569Z,17.90
2018-11-03T00:57:09.809Z,17.27
2018-11-03T00:59:38.081Z,18.03
2018-11-03T01:02:06.371Z,16.47
2018-11-03T01:04:34.573Z,18.57
2018-11-03T01:07:02.829Z,19.43
2018-11-03T01:09:31.006Z,18.10
2018-11-03T01:11:59.206Z,18.73
2018-11-03T01:14:27.411Z,18.87
2018-11-03T01:16:55.645Z,17.70
2018-11-03T01:19:23.857Z,18.10
2018-11-03T01:21:52.072Z,19.00
2018-11-03T01:24:20.349Z,19.20
2018-11-03T01:26:48.554Z,20.00
2018-11-03T01:29:16.704Z,20.67
2018-11-03T01:31:44.965Z,19.10
2018-11-03T01:34:13.248Z,20.97
2018-11-03T01:36:41.430Z,19.80
2018-11-03T01:39:10.968Z,20.13
2018-11-03T01:41:39.328Z,21.47
2018-11-03T01:44:07.687Z,20.20
2018-11-03T01:46:35.875Z,20.80
2018-11-03T01:49:04.073Z,21.83
2018-11-03T01:51:32.278Z,21.10
2018-11-03T01:54:00.538Z,19.57
2018-11-03T01:56:28.740Z,20.80
2018-11-03T01:58:56.962Z,19.83
2018-11-03T02:01:25.145Z,21.40
2018-11-03T02:03:53.410Z,20.90
2018-11-03T02:06:21.661Z,20.77
2018-11-03T02:08:49.889Z,21.77
2018-11-03T02:11:18.058Z,20.80
2018-11-03T02:13:46.282Z,21.33
2018-11-03T02:16:14.436Z,19.90
2018-11-03T02:18:42.694Z,20.03
2018-11-03T02:21:10.979Z,18.77
2018-11-03T02:26:24.770Z,19.90
2018-11-03T02:28:52.952Z,19.57
2018-11-03T02:31:21.118Z,19.60
2018-11-03T02:33:49.302Z,19.40
2018-11-03T02:36:17.467Z,18.63
2018-11-03T02:38:45.638Z,19.50
2018-11-03T02:41:13.765Z,19.40
2018-11-03T02:43:41.975Z,20.00
2018-11-03T02:46:10.135Z,21.10
2018-11-03T02:48:38.364Z,20.83
2018-11-03T02:51:06.488Z,20.77
2018-11-03T02:53:34.671Z,19.80
2018-11-03T02:56:02.810Z,20.80
2018-11-03T02:58:30.963Z,19.97
2018-11-03T03:00:59.115Z,18.90
2018-11-03T03:03:27.276Z,21.77
2018-11-03T03:05:55.559Z,21.77
2018-11-03T03:08:23.687Z,22.40
2018-11-03T03:10:51.860Z,22.47
2018-11-03T03:13:20.012Z,21.50
2018-11-03T03:15:48.214Z,21.80
2018-11-03T03:18:16.370Z,23.97
2018-11-03T03:20:44.545Z,24.70
2018-11-03T03:23:19.257Z,24.43
2018-11-03T03:25:54.041Z,23.60
2018-11-03T03:28:22.169Z,23.03
2018-11-03T03:30:50.329Z,24.20
2018-11-03T03:33:18.523Z,25.37
2018-11-03T03:35:46.765Z,25.30
2018-11-03T03:38:15.006Z,25.43
2018-11-03T03:40:43.175Z,25.17
2018-11-03T03:43:11.385Z,25.80
2018-11-03T03:45:39.560Z,24.90
2018-11-03T03:48:07.759Z,25.70
2018-11-03T03:50:35.911Z,26.00
2018-11-03T03:53:04.168Z,26.47
2018-11-03T03:55:32.343Z,27.10
2018-11-03T03:58:00.527Z,25.83
2018-11-03T04:00:28.733Z,25.40
2018-11-03T04:02:56.876Z,26.17
2018-11-03T04:05:25.046Z,23.73
2018-11-03T04:07:53.216Z,24.60
2018-11-03T04:10:21.397Z,25.87
2018-11-03T04:12:49.576Z,24.53
2018-11-03T04:15:17.768Z,26.17
2018-11-03T04:17:45.942Z,25.87
2018-11-03T04:20:14.135Z,24.77
2018-11-03T04:22:42.260Z,25.27
2018-11-03T04:25:10.444Z,26.20
2018-11-03T04:27:38.680Z,26.40
2018-11-03T04:30:10.260Z,25.00
2018-11-03T04:32:38.374Z,25.40
2018-11-03T04:35:06.784Z,25.17
2018-11-03T04:37:34.924Z,25.80
2018-11-03T04:40:03.134Z,25.80
2018-11-03T04:42:31.304Z,23.33
2018-11-03T04:44:59.456Z,24.53
2018-11-03T04:47:27.660Z,25.17
2018-11-03T04:49:55.800Z,25.03
2018-11-03T04:52:23.999Z,25.97
2018-11-03T04:54:52.191Z,25.60
2018-11-03T04:57:20.330Z,24.80
2018-11-03T04:59:48.503Z,25.93
2018-11-03T05:02:16.691Z,25.70
2018-11-03T05:04:44.832Z,25.57
2018-11-03T05:07:13.003Z,25.80
2018-11-03T05:09:41.169Z,26.10
2018-11-03T05:12:09.312Z,23.97
2018-11-03T05:14:37.468Z,26.50
2018-11-03T05:17:06.406Z,26.43
2018-11-03T05:19:34.630Z,24.70
2018-11-03T05:22:02.767Z,25.50
2018-11-03T05:24:30.940Z,24.17
2018-11-03T05:26:59.142Z,24.40
2018-11-03T05:29:27.329Z,25.10
2018-11-03T05:31:55.650Z,23.23
2018-11-03T05:34:23.829Z,23.40
2018-11-03T05:36:51.989Z,24.20
2018-11-03T05:39:20.125Z,24.37
2018-11-03T05:41:48.250Z,23.90
2018-11-03T05:44:16.437Z,24.30
2018-11-03T05:46:44.675Z,23.53
2018-11-03T05:49:12.876Z,24.53
2018-11-03T05:51:41.082Z,23.63
2018-11-03T05:54:09.373Z,23.30
2018-11-03T05:56:37.543Z,22.90
2018-11-03T05:59:06.328Z,24.27
2018-11-03T06:01:34.414Z,22.80
2018-11-03T06:04:02.610Z,24.60
2018-11-03T06:06:30.783Z,23.70
2018-11-03T06:08:58.972Z,25.17
2018-11-03T06:11:27.117Z,23.77
2018-11-03T06:13:55.299Z,24.57
2018-11-03T06:16:23.527Z,23.50
2018-11-03T06:18:51.717Z,23.57
2018-11-03T06:21:20.025Z,24.03
2018-11-03T06:23:48.185Z,22.27
2018-11-03T06:26:16.809Z,22.07
2018-11-03T06:28:45.001Z,23.47
2018-11-03T06:31:13.263Z,23.40
2018-11-03T06:33:41.491Z,23.43
2018-11-03T06:36:09.677Z,21.73
2018-11-03T06:38:37.905Z,23.30
2018-11-03T06:41:06.151Z,22.57
2018-11-03T06:43:34.348Z,23.73
2018-11-03T06:46:02.609Z,21.63
2018-11-03T06:48:31.838Z,22.30
2018-11-03T06:51:00.055Z,21.33
2018-11-03T06:53:28.217Z,21.27
2018-11-03T06:55:56.462Z,22.20
2018-11-03T06:58:24.993Z,21.93
2018-11-03T07:00:53.269Z,21.33
2018-11-03T07:03:21.461Z,23.63
2018-11-03T07:05:49.649Z,23.40
2018-11-03T07:08:17.812Z,21.77
2018-11-03T07:10:46.023Z,22.73
2018-11-03T07:13:14.340Z,22.93
2018-11-03T07:15:42.423Z,22.47
2018-11-03T07:18:10.657Z,22.87
2018-11-03T07:20:38.876Z,23.27
2018-11-03T07:23:07.035Z,22.40
2018-11-03T07:25:35.203Z,21.53
2018-11-03T07:28:03.368Z,22.03
2018-11-03T07:30:31.614Z,22.10
2018-11-03T07:32:59.799Z,22.17
2018-11-03T07:35:27.963Z,23.10
2018-11-03T07:37:56.134Z,22.70
2018-11-03T07:40:24.428Z,23.20
2018-11-03T07:42:52.668Z,22.87
2018-11-03T07:45:20.913Z,22.27
2018-11-03T07:47:49.135Z,20.67
2018-11-03T07:50:17.327Z,21.50
2018-11-03T07:52:45.545Z,21.47
2018-11-03T07:55:13.960Z,20.70
2018-11-03T07:57:42.237Z,19.60
2018-11-03T08:00:12.476Z,20.13
2018-11-03T08:02:40.979Z,19.50
2018-11-03T08:05:10.595Z,21.63
2018-11-03T08:07:38.755Z,20.17
2018-11-03T08:10:08.229Z,20.03
2018-11-03T08:12:37.477Z,19.53
2018-11-03T08:15:23.368Z,21.20
2018-11-03T08:18:23.009Z,21.37
2018-11-03T08:20:52.036Z,21.13
2018-11-03T08:23:39.805Z,23.07
2018-11-03T08:31:54.952Z,21.30
2018-11-03T08:34:23.115Z,21.20
2018-11-03T08:36:51.262Z,23.23
2018-11-03T08:39:19.411Z,23.00
2018-11-03T08:41:47.574Z,24.27
2018-11-03T08:44:15.808Z,24.17
2018-11-03T08:46:43.961Z,22.80
2018-11-03T08:49:12.101Z,22.47
2018-11-03T08:51:40.339Z,23.70
2018-11-03T08:54:08.607Z,22.50
2018-11-03T08:56:36.800Z,22.80
2018-11-03T08:59:05.118Z,23.07
2018-11-03T09:01:33.294Z,23.83
2018-11-03T09:04:01.491Z,23.53
2018-11-03T09:06:29.670Z,24.57
2018-11-03T09:08:57.851Z,23.13
2018-11-03T09:11:25.979Z,23.30
2018-11-03T09:13:54.152Z,24.77
2018-11-03T09:16:22.350Z,23.87
2018-11-03T09:18:50.508Z,24.60
2018-11-03T09:21:18.698Z,23.17
2018-11-03T09:23:46.971Z,24.43
2018-11-03T09:26:15.132Z,24.80
2018-11-03T09:28:43.722Z,22.87
2018-11-03T09:31:11.870Z,24.23
2018-11-03T09:33:40.067Z,26.03
2018-11-03T09:36:08.216Z,25.80
2018-11-03T09:38:36.441Z,24.57
2018-11-03T09:41:04.575Z,24.03
2018-11-03T09:43:32.796Z,24.37
2018-11-03T09:46:00.936Z,24.43
2018-11-03T09:48:29.055Z,23.10
2018-11-03T09:50:57.253Z,23.50
2018-11-03T09:53:25.473Z,23.00
2018-11-03T09:55:53.672Z,22.37
2018-11-03T09:58:21.881Z,22.50
2018-11-03T10:00:50.092Z,22.13
2018-11-03T10:03:18.344Z,24.67
2018-11-03T10:05:46.488Z,23.80
2018-11-03T10:08:14.697Z,23.30
2018-11-03T10:10:42.885Z,23.73
2018-11-03T10:13:11.100Z,20.07
2018-11-03T10:15:39.340Z,21.00
2018-11-03T10:18:07.481Z,20.73
2018-11-03T10:20:35.685Z,20.40
2018-11-03T10:23:04.059Z,20.50
2018-11-03T10:25:32.137Z,18.07
2018-11-03T10:28:00.387Z,15.93
2018-11-03T10:30:28.554Z,15.33
2018-11-03T10:32:56.751Z,16.40
2018-11-03T10:35:24.901Z,16.20
2018-11-03T10:37:53.102Z,19.13
2018-11-03T10:40:21.300Z,16.90
2018-11-03T10:42:49.492Z,18.37
2018-11-03T10:45:17.765Z,21.10
2018-11-03T10:47:46.207Z,18.37
2018-11-03T10:50:16.154Z,17.17
2018-11-03T10:52:45.085Z,17.00
2018-11-03T10:55:15.342Z,16.87
2018-11-03T10:57:43.663Z,16.60
2018-11-03T11:00:18.421Z,17.03
2018-11-03T11:02:52.317Z,16.97
2018-11-03T11:07:28.651Z,17.10
2018-11-03T11:10:02.134Z,18.97
2018-11-03T11:12:39.127Z,19.70
2018-11-03T11:15:08.209Z,18.03
2018-11-03T11:17:36.485Z,15.00
2018-11-03T11:20:05.716Z,15.27
2018-11-03T11:22:33.995Z,18.47
2018-11-03T11:25:02.363Z,14.30
2018-11-03T11:27:30.435Z,14.97
2018-11-03T11:29:58.609Z,17.30
2018-11-03T11:32:27.065Z,18.53
2018-11-03T11:34:55.241Z,13.23
2018-11-03T11:37:23.504Z,13.10
2018-11-03T11:39:51.645Z,12.27
2018-11-03T11:42:19.817Z,12.43
2018-11-03T11:44:48.010Z,13.47
2018-11-03T11:47:16.229Z,14.30
2018-11-03T11:52:18.953Z,10.93
2018-11-03T11:54:47.146Z,11.33
2018-11-03T11:57:15.327Z,11.03
2018-11-03T11:59:43.516Z,11.60
2018-11-03T12:02:11.814Z,11.10
2018-11-03T12:04:40.022Z,9.90
2018-11-03T12:07:08.309Z,8.20
2018-11-03T12:09:36.572Z,6.73
2018-11-03T12:12:04.869Z,6.80
2018-11-03T12:14:33.160Z,7.80
2018-11-03T12:17:01.415Z,7.40
2018-11-03T12:19:29.668Z,8.17
2018-11-03T12:21:57.859Z,7.10
2018-11-03T12:24:26.016Z,7.10
2018-11-03T12:26:54.228Z,7.43
2018-11-03T12:29:22.486Z,7.13
2018-11-03T12:31:50.691Z,7.17
2018-11-03T12:34:18.884Z,8.87
2018-11-03T12:36:47.106Z,8.63
2018-11-03T12:39:15.409Z,8.30
2018-11-03T12:41:44.003Z,6.27
2018-11-03T12:44:12.164Z,6.37
2018-11-03T12:46:40.394Z,6.00
2018-11-03T12:49:08.686Z,6.00
2018-11-03T12:51:36.940Z,6.83
2018-11-03T12:54:05.224Z,6.50
2018-11-03T12:56:33.563Z,6.90
2018-11-03T12:59:01.770Z,6.57
2018-11-03T13:01:29.971Z,6.20
2018-11-03T13:03:58.184Z,7.03
2018-11-03T13:06:26.349Z,7.23
2018-11-03T13:08:54.629Z,6.50
2018-11-03T13:11:22.887Z,7.33
2018-11-03T13:13:51.238Z,7.87
2018-11-03T13:16:19.622Z,7.50
2018-11-03T13:18:47.921Z,7.63
2018-11-03T13:21:16.170Z,8.00
2018-11-03T13:23:44.413Z,7.70
2018-11-03T13:26:12.689Z,7.80
2018-11-03T13:28:40.884Z,7.83
2018-11-03T13:31:09.591Z,7.60
2018-11-03T13:33:37.793Z,8.53
2018-11-03T13:36:06.067Z,8.27
2018-11-03T13:38:34.260Z,8.43
2018-11-03T13:41:02.569Z,7.63
2018-11-03T13:43:30.906Z,7.67
2018-11-03T13:45:59.131Z,8.00
2018-11-03T13:48:27.317Z,7.63
2018-11-03T13:50:55.483Z,8.20
2018-11-03T13:53:23.747Z,7.90
2018-11-03T13:55:51.985Z,9.73
2018-11-03T13:58:20.207Z,8.30
2018-11-03T14:00:48.432Z,8.60
2018-11-03T14:03:16.953Z,8.60
2018-11-03T14:05:45.211Z,8.10
2018-11-03T14:08:13.470Z,7.70
2018-11-03T14:10:41.721Z,7.20
2018-11-03T14:13:09.927Z,7.57
2018-11-03T14:15:38.145Z,7.53
2018-11-03T14:18:06.318Z,7.93
2018-11-03T14:20:34.484Z,8.60
2018-11-03T14:23:02.707Z,8.10
2018-11-03T14:25:30.860Z,9.20
2018-11-03T14:27:59.052Z,7.30
2018-11-03T14:30:27.226Z,8.13
2018-11-03T14:32:55.439Z,7.80
2018-11-03T14:35:23.602Z,6.00
2018-11-03T14:37:51.843Z,7.00
2018-11-03T14:40:20.002Z,7.77
2018-11-03T14:42:48.216Z,6.67
2018-11-03T14:45:17.027Z,5.80
2018-11-03T14:47:45.158Z,5.60
2018-11-03T14:50:13.376Z,7.10
2018-11-03T14:52:42.405Z,6.07
2018-11-03T14:55:11.220Z,6.40
2018-11-03T14:57:39.350Z,7.10
2018-11-03T15:00:11.674Z,7.10
2018-11-03T15:02:39.911Z,6.60
2018-11-03T15:05:08.860Z,6.63
2018-11-03T15:07:37.290Z,6.10
2018-11-03T15:10:06.454Z,5.77
2018-11-03T15:12:34.635Z,7.10
2018-11-03T15:15:02.980Z,6.63
2018-11-03T15:17:31.039Z,7.10
2018-11-03T15:19:59.228Z,8.07
2018-11-03T15:22:27.501Z,7.00
2018-11-03T15:24:55.646Z,7.40
2018-11-03T15:27:28.108Z,6.20
2018-11-03T15:29:56.335Z,7.03
2018-11-03T15:32:24.585Z,7.60
2018-11-03T15:34:52.839Z,7.10
2018-11-03T15:37:20.974Z,6.80
2018-11-03T15:39:49.178Z,6.90
2018-11-03T15:42:17.326Z,7.30
2018-11-03T15:44:45.562Z,7.10
2018-11-03T15:47:13.719Z,7.87
2018-11-03T15:49:41.929Z,6.63
2018-11-03T15:52:10.120Z,6.83
2018-11-03T15:54:38.319Z,6.90
2018-11-03T15:57:06.871Z,7.77
2018-11-03T15:59:35.032Z,6.37
2018-11-03T16:02:03.198Z,6.63
2018-11-03T16:04:31.463Z,7.13
2018-11-03T16:06:59.616Z,6.97
2018-11-03T16:09:27.814Z,6.63
2018-11-03T16:11:56.012Z,7.40
2018-11-03T16:14:24.169Z,6.83
2018-11-03T16:16:52.311Z,7.77
2018-11-03T16:19:20.515Z,7.00
2018-11-03T16:21:48.705Z,8.10
2018-11-03T16:24:16.851Z,7.43
2018-11-03T16:26:45.108Z,6.83
2018-11-03T16:29:13.327Z,6.93
2018-11-03T16:31:41.488Z,7.30
2018-11-03T16:34:09.764Z,7.43
2018-11-03T16:36:37.975Z,6.70
2018-11-03T16:39:08.247Z,6.90
2018-11-03T16:41:36.516Z,6.80
2018-11-03T16:44:04.757Z,7.67
2018-11-03T16:46:32.932Z,7.27
2018-11-03T16:49:01.093Z,7.80
2018-11-03T16:51:29.296Z,7.50
2018-11-03T16:53:57.457Z,8.83
2018-11-03T16:56:25.701Z,7.90
2018-11-03T16:58:54.033Z,8.80
2018-11-03T17:01:22.239Z,8.40
2018-11-03T17:03:50.399Z,8.63
2018-11-03T17:06:18.635Z,7.70
2018-11-03T17:08:46.911Z,9.17
2018-11-03T17:11:15.082Z,9.63
2018-11-03T17:13:43.281Z,9.00
2018-11-03T17:16:11.503Z,9.67
2018-11-03T17:18:39.785Z,8.63
2018-11-03T17:21:08.057Z,10.17
2018-11-03T17:23:36.226Z,9.87
2018-11-03T17:26:04.673Z,9.20
2018-11-03T17:28:32.848Z,9.50
2018-11-03T17:31:01.011Z,10.03
2018-11-03T17:33:29.227Z,11.03
2018-11-03T17:35:57.431Z,10.00
2018-11-03T17:38:25.645Z,9.60
2018-11-03T17:40:53.850Z,12.40
2018-11-03T17:43:22.071Z,10.53
2018-11-03T17:45:50.485Z,10.20
2018-11-03T17:48:18.734Z,9.53
2018-11-03T17:50:46.915Z,10.07
2018-11-03T17:53:15.045Z,9.40
2018-11-03T17:55:43.250Z,10.13
2018-11-03T17:58:11.417Z,10.87
2018-11-03T18:00:39.764Z,9.90
2018-11-03T18:03:07.889Z,10.37
2018-11-03T18:05:36.109Z,11.87
2018-11-03T18:08:04.505Z,11.07
2018-11-03T18:10:32.651Z,11.90
2018-11-03T18:13:00.894Z,11.17
2018-11-03T18:15:29.034Z,11.53
2018-11-03T18:17:57.225Z,12.80
2018-11-03T18:20:25.398Z,13.03
2018-11-03T18:22:53.556Z,12.77
2018-11-03T18:25:21.841Z,12.80
2018-11-03T18:27:50.000Z,12.80
2018-11-03T18:30:18.216Z,12.57
2018-11-03T18:32:46.410Z,13.43
2018-11-03T18:35:14.580Z,12.37
2018-11-03T18:37:42.833Z,13.43
2018-11-03T18:40:10.991Z,13.70
2018-11-03T18:42:39.140Z,16.40
2018-11-03T18:45:07.723Z,20.10
2018-11-03T18:47:35.914Z,16.60
2018-11-03T18:50:04.536Z,45.43
2018-11-03T18:52:32.963Z,51.10
2018-11-03T18:55:01.746Z,15.40
2018-11-03T18:57:30.011Z,21.37
2018-11-03T18:59:58.376Z,32.60
2018-11-03T19:02:26.920Z,33.57
2018-11-03T19:04:55.042Z,24.00
2018-11-03T19:07:23.490Z,16.93
2018-11-03T19:09:52.293Z,15.37
2018-11-03T19:12:20.467Z,13.13
2018-11-03T19:14:48.782Z,14.60
2018-11-03T19:17:17.385Z,15.20
2018-11-03T19:19:45.907Z,15.50
2018-11-03T19:22:15.006Z,16.60
2018-11-03T19:24:43.964Z,16.37
2018-11-03T19:27:12.907Z,17.67
2018-11-03T19:29:41.415Z,17.67
2018-11-03T19:32:10.010Z,17.07
2018-11-03T19:34:38.609Z,18.03
2018-11-03T19:37:07.282Z,17.17
2018-11-03T19:39:35.800Z,18.03
2018-11-03T19:42:04.305Z,16.60
2018-11-03T19:44:32.779Z,17.00
2018-11-03T19:47:01.420Z,21.93
2018-11-03T19:49:29.948Z,20.17
2018-11-03T19:51:58.512Z,17.00
2018-11-03T19:54:27.077Z,14.97
2018-11-03T19:56:55.594Z,18.67
2018-11-03T19:59:24.294Z,16.60
2018-11-03T20:01:52.584Z,15.13
2018-11-03T20:04:20.867Z,18.40
2018-11-03T20:06:49.147Z,17.77
2018-11-03T20:09:17.347Z,15.00
2018-11-03T20:11:45.495Z,16.10
2018-11-03T20:14:13.747Z,17.67
2018-11-03T20:16:41.980Z,15.80
2018-11-03T20:19:10.235Z,16.60
2018-11-03T20:21:38.425Z,16.70
2018-11-03T20:24:06.735Z,16.60
2018-11-03T20:26:35.361Z,16.60
2018-11-03T20:29:04.053Z,20.17
2018-11-03T20:31:32.325Z,21.00
2018-11-03T20:34:00.591Z,21.97
2018-11-03T20:36:28.810Z,20.63
2018-11-03T20:38:57.013Z,20.87
2018-11-03T20:41:25.282Z,22.43
2018-11-03T20:43:53.489Z,18.60
2018-11-03T20:46:21.667Z,17.90
2018-11-03T20:48:50.063Z,19.13
2018-11-03T20:51:18.326Z,18.93
2018-11-03T20:53:46.638Z,17.80
2018-11-03T20:56:14.826Z,17.50
2018-11-03T20:58:43.021Z,17.57
2018-11-03T21:01:11.227Z,18.33
2018-11-03T21:03:39.507Z,18.67
2018-11-03T21:06:07.778Z,18.13
2018-11-03T21:08:35.950Z,16.70
2018-11-03T21:11:04.278Z,17.50
2018-11-03T21:13:32.488Z,18.10
2018-11-03T21:16:00.724Z,16.47
2018-11-03T21:18:29.252Z,19.20
2018-11-03T21:20:57.441Z,18.07
2018-11-03T21:23:25.870Z,18.60
2018-11-03T21:25:54.061Z,19.10
2018-11-03T21:28:22.299Z,56.63
2018-11-03T21:30:50.543Z,56.20
2018-11-03T21:33:18.790Z,65.27
2018-11-03T21:35:46.959Z,22.73
2018-11-03T21:38:15.281Z,17.67
2018-11-03T21:40:43.545Z,17.60
2018-11-03T21:43:11.748Z,17.83
2018-11-03T21:45:39.941Z,18.20
2018-11-03T21:48:08.216Z,17.47
2018-11-03T21:50:36.450Z,18.43
2018-11-03T21:53:05.034Z,18.80
2018-11-03T21:55:33.250Z,18.30
2018-11-03T21:58:01.490Z,18.17
2018-11-03T22:00:29.926Z,18.70
2018-11-03T22:02:58.252Z,18.63
2018-11-03T22:05:26.684Z,18.90
2018-11-03T22:07:54.906Z,18.77
2018-11-03T22:10:23.168Z,19.50
2018-11-03T22:12:51.380Z,19.57
2018-11-03T22:15:19.702Z,19.13
2018-11-03T22:17:47.890Z,19.20
2018-11-03T22:20:16.074Z,18.13
2018-11-03T22:22:44.254Z,19.43
2018-11-03T22:25:12.496Z,19.80
2018-11-03T22:27:40.749Z,19.30
2018-11-03T22:30:10.126Z,18.33
2018-11-03T22:32:38.380Z,20.20
2018-11-03T22:35:06.872Z,19.60
2018-11-03T22:37:35.096Z,19.47
2018-11-03T22:40:03.336Z,20.50
2018-11-03T22:42:31.530Z,19.07
2018-11-03T22:44:59.756Z,19.70
2018-11-03T22:47:27.990Z,19.97
2018-11-03T22:49:56.230Z,20.47
2018-11-03T22:52:24.426Z,19.97
2018-11-03T22:54:53.641Z,19.23
2018-11-03T22:57:21.821Z,18.60
2018-11-03T22:59:50.057Z,20.30
2018-11-03T23:02:18.230Z,23.30
2018-11-03T23:04:46.441Z,23.60
2018-11-03T23:07:14.987Z,20.40
2018-11-03T23:09:43.245Z,20.00
2018-11-03T23:12:11.470Z,20.37
2018-11-03T23:14:39.640Z,20.13
2018-11-03T23:17:07.824Z,21.30
2018-11-03T23:19:36.061Z,21.20
2018-11-03T23:22:04.361Z,21.70
2018-11-03T23:24:32.534Z,20.27
2018-11-03T23:27:00.811Z,20.00
2018-11-03T23:29:29.093Z,21.13
2018-11-03T23:31:57.216Z,20.83
2018-11-03T23:34:25.422Z,19.23
2018-11-03T23:36:53.645Z,20.87
2018-11-03T23:39:21.830Z,20.37
2018-11-03T23:41:50.013Z,20.77
2018-11-03T23:44:18.179Z,20.03
2018-11-03T23:46:46.404Z,20.60
2018-11-03T23:49:14.598Z,21.80
2018-11-03T23:51:42.783Z,21.30
2018-11-03T23:54:10.957Z,20.03
2018-11-03T23:56:39.121Z,20.03
2018-11-03T23:59:07.346Z,19.67
